createdAt,value
2024-01-03T00:00:09.653Z,4.45
2024-01-03T00:02:38.417Z,4.78
2024-01-03T00:05:10.244Z,4.90
2024-01-03T00:07:38.808Z,4.10
2024-01-03T00:10:43.355Z,4.67
2024-01-03T00:13:55.404Z,4.22
2024-01-03T00:16:23.877Z,4.75
2024-01-03T00:18:59.158Z,4.87
2024-01-03T00:21:29.330Z,4.78
2024-01-03T00:24:01.725Z,4.33
2024-01-03T00:26:31.137Z,5.20
2024-01-03T00:28:59.740Z,4.95
2024-01-03T00:31:44.252Z,5.03
2024-01-03T00:34:36.604Z,5.00
2024-01-03T00:37:08.273Z,4.70
2024-01-03T00:39:36.618Z,4.53
2024-01-03T00:42:05.087Z,4.40
2024-01-03T00:44:33.565Z,5.03
2024-01-03T00:47:01.985Z,5.33
2024-01-03T00:49:30.614Z,5.08
2024-01-03T00:51:59.150Z,4.28
2024-01-03T00:54:27.562Z,4.00
2024-01-03T00:56:56.571Z,5.15
2024-01-03T00:59:25.142Z,4.85
2024-01-03T01:01:53.468Z,4.80
2024-01-03T01:04:21.961Z,5.33
2024-01-03T01:06:50.401Z,5.60
2024-01-03T01:09:18.833Z,4.83
2024-01-03T01:11:47.689Z,4.97
2024-01-03T01:14:16.047Z,4.45
2024-01-03T01:16:44.730Z,5.00
2024-01-03T01:19:13.503Z,4.65
2024-01-03T01:21:42.767Z,5.08
2024-01-03T01:24:11.996Z,5.10
2024-01-03T01:26:40.622Z,4.83
2024-01-03T01:29:09.445Z,5.00
2024-01-03T01:31:38.259Z,4.33
2024-01-03T01:34:07.057Z,4.55
2024-01-03T01:36:35.634Z,5.37
2024-01-03T01:39:04.428Z,4.58
2024-01-03T01:41:33.258Z,4.65
2024-01-03T01:44:02.527Z,4.80
2024-01-03T01:46:31.116Z,4.65
2024-01-03T01:48:59.595Z,4.60
2024-01-03T01:51:28.828Z,4.37
2024-01-03T01:53:57.187Z,4.72
2024-01-03T01:56:25.654Z,4.80
2024-01-03T01:58:54.443Z,4.67
2024-01-03T02:01:22.927Z,5.47
2024-01-03T02:03:51.711Z,4.80
2024-01-03T02:06:21.420Z,5.40
2024-01-03T02:08:50.438Z,5.03
2024-01-03T02:11:18.833Z,5.62
2024-01-03T02:13:49.272Z,5.12
2024-01-03T02:16:19.001Z,5.17
2024-01-03T02:18:47.476Z,5.58
2024-01-03T02:21:16.748Z,5.45
2024-01-03T02:23:45.285Z,5.33
2024-01-03T02:26:25.577Z,5.50
2024-01-03T02:28:45.041Z,5.62
2024-01-03T02:31:13.430Z,6.00
2024-01-03T02:33:42.140Z,6.30
2024-01-03T02:36:10.773Z,5.80
2024-01-03T02:38:39.243Z,5.70
2024-01-03T02:41:07.680Z,5.72
2024-01-03T02:43:36.426Z,5.20
2024-01-03T02:46:05.023Z,5.92
2024-01-03T02:48:33.936Z,5.40
2024-01-03T02:51:02.589Z,5.62
2024-01-03T02:53:31.276Z,5.83
2024-01-03T02:55:59.668Z,5.37
2024-01-03T02:58:28.091Z,6.40
2024-01-03T03:00:56.650Z,5.80
2024-01-03T03:03:25.027Z,6.20
2024-01-03T03:05:53.345Z,6.20
2024-01-03T03:08:22.006Z,7.17
2024-01-03T03:10:50.547Z,7.35
2024-01-03T03:13:18.947Z,7.37
2024-01-03T03:15:48.802Z,7.92
2024-01-03T03:18:17.384Z,7.90
2024-01-03T03:20:46.281Z,7.37
2024-01-03T03:23:14.705Z,7.87
2024-01-03T03:25:43.071Z,8.70
2024-01-03T03:28:11.531Z,7.75
2024-01-03T03:30:40.068Z,7.45
2024-01-03T03:33:08.684Z,8.58
2024-01-03T03:35:37.210Z,8.18
2024-01-03T03:38:05.898Z,7.87
2024-01-03T03:40:34.644Z,7.65
2024-01-03T03:43:03.306Z,7.90
2024-01-03T03:45:32.680Z,8.03
2024-01-03T03:48:01.331Z,7.70
2024-01-03T03:50:30.200Z,7.62
2024-01-03T03:52:58.379Z,6.85
2024-01-03T03:55:27.315Z,7.72
2024-01-03T03:57:55.854Z,8.50
2024-01-03T04:00:24.476Z,8.80
2024-01-03T04:02:53.187Z,8.23
2024-01-03T04:05:21.774Z,8.53
2024-01-03T04:07:50.238Z,8.30
2024-01-03T04:10:18.578Z,8.58
2024-01-03T04:12:47.473Z,8.18
2024-01-03T04:15:16.755Z,8.35
2024-01-03T04:17:45.453Z,8.20
2024-01-03T04:20:14.113Z,7.22
2024-01-03T04:22:44.765Z,7.37
2024-01-03T04:25:13.162Z,7.35
2024-01-03T04:27:41.499Z,7.95
2024-01-03T04:30:09.981Z,7.47
2024-01-03T04:32:39.061Z,8.45
2024-01-03T04:35:09.006Z,7.72
2024-01-03T04:37:37.471Z,8.53
2024-01-03T04:40:07.658Z,7.33
2024-01-03T04:42:36.365Z,7.75
2024-01-03T04:45:05.598Z,7.78
2024-01-03T04:47:35.805Z,7.42
2024-01-03T04:50:04.946Z,7.45
2024-01-03T04:52:34.021Z,6.97
2024-01-03T04:55:02.875Z,7.85
2024-01-03T04:57:36.309Z,7.40
2024-01-03T05:00:05.711Z,7.15
2024-01-03T05:02:36.059Z,7.20
2024-01-03T05:05:05.463Z,7.28
2024-01-03T05:07:35.421Z,8.00
2024-01-03T05:10:07.133Z,7.22
2024-01-03T05:12:37.465Z,7.65
2024-01-03T05:15:08.939Z,7.50
2024-01-03T05:17:37.739Z,7.78
2024-01-03T05:20:08.646Z,7.35
2024-01-03T05:22:37.318Z,7.53
2024-01-03T05:25:07.219Z,7.22
2024-01-03T05:27:35.814Z,7.62
2024-01-03T05:30:05.416Z,7.20
2024-01-03T05:32:34.199Z,7.40
2024-01-03T05:35:02.800Z,8.05
2024-01-03T05:37:31.673Z,7.83
2024-01-03T05:40:00.236Z,7.78
2024-01-03T05:42:28.865Z,7.58
2024-01-03T05:44:57.381Z,8.00
2024-01-03T05:47:26.058Z,8.20
2024-01-03T05:49:54.650Z,8.28
2024-01-03T05:52:23.021Z,7.83
2024-01-03T05:54:51.345Z,8.58
2024-01-03T05:57:19.703Z,8.80
2024-01-03T05:59:48.228Z,7.72
2024-01-03T06:02:16.886Z,7.97
2024-01-03T06:04:46.998Z,7.80
2024-01-03T06:07:15.537Z,7.55
2024-01-03T06:09:44.922Z,7.42
2024-01-03T06:12:15.547Z,7.67
2024-01-03T06:14:44.034Z,7.67
2024-01-03T06:17:12.737Z,7.10
2024-01-03T06:19:41.236Z,7.28
2024-01-03T06:22:09.644Z,7.70
2024-01-03T06:24:38.269Z,8.20
2024-01-03T06:27:06.915Z,8.03
2024-01-03T06:29:38.011Z,8.43
2024-01-03T06:32:06.353Z,8.43
2024-01-03T06:34:34.833Z,8.20
2024-01-03T06:37:03.601Z,8.10
2024-01-03T06:39:32.351Z,8.73
2024-01-03T06:42:01.708Z,8.33
2024-01-03T06:44:30.195Z,9.28
2024-01-03T06:46:58.497Z,8.08
2024-01-03T06:49:27.704Z,8.10
2024-01-03T06:51:58.331Z,9.08
2024-01-03T06:54:27.436Z,9.25
2024-01-03T06:56:55.869Z,9.03
2024-01-03T06:59:24.734Z,9.43
2024-01-03T07:01:53.374Z,10.15
2024-01-03T07:04:26.420Z,10.32
2024-01-03T07:06:53.285Z,10.43
2024-01-03T07:09:21.592Z,11.45
2024-01-03T07:11:49.857Z,11.05
2024-01-03T07:14:18.366Z,10.65
2024-01-03T07:16:49.929Z,12.23
2024-01-03T07:19:17.366Z,10.63
2024-01-03T07:21:45.689Z,10.98
2024-01-03T07:24:14.028Z,12.18
2024-01-03T07:26:42.619Z,10.88
2024-01-03T07:29:11.365Z,10.88
2024-01-03T07:31:39.763Z,10.95
2024-01-03T07:34:08.364Z,11.38
2024-01-03T07:36:37.138Z,10.98
2024-01-03T07:39:06.650Z,10.63
2024-01-03T07:41:36.687Z,9.65
2024-01-03T07:44:05.918Z,9.43
2024-01-03T07:46:34.220Z,8.78
2024-01-03T07:49:02.894Z,9.20
2024-01-03T07:51:34.054Z,10.20
2024-01-03T07:54:03.203Z,9.33
2024-01-03T07:56:32.357Z,10.18
2024-01-03T07:59:00.990Z,9.38
2024-01-03T08:01:29.875Z,8.55
2024-01-03T08:03:58.716Z,13.95
2024-01-03T08:06:27.296Z,9.78
2024-01-03T08:08:56.148Z,10.75
2024-01-03T08:11:24.790Z,9.65
2024-01-03T08:13:53.155Z,10.03
2024-01-03T08:16:21.510Z,8.63
2024-01-03T08:18:49.974Z,9.50
2024-01-03T08:21:20.514Z,9.20
2024-01-03T08:23:49.459Z,9.38
2024-01-03T08:26:20.061Z,11.12
2024-01-03T08:28:48.660Z,9.85
2024-01-03T08:31:18.274Z,10.23
2024-01-03T08:33:47.110Z,9.68
2024-01-03T08:36:17.825Z,9.28
2024-01-03T08:38:48.242Z,8.98
2024-01-03T08:41:20.200Z,10.13
2024-01-03T08:43:48.716Z,10.08
2024-01-03T08:46:17.618Z,10.00
2024-01-03T08:48:46.430Z,9.85
2024-01-03T08:51:17.111Z,9.50
2024-01-03T08:53:45.843Z,9.63
2024-01-03T08:56:20.235Z,10.20
2024-01-03T08:58:50.646Z,9.78
2024-01-03T09:01:20.019Z,9.95
2024-01-03T09:03:48.554Z,10.58
2024-01-03T09:06:24.174Z,9.05
2024-01-03T09:08:56.202Z,9.98
2024-01-03T09:11:27.365Z,9.90
2024-01-03T09:13:57.761Z,9.25
2024-01-03T09:16:30.946Z,9.40
2024-01-03T09:18:59.898Z,9.20
2024-01-03T09:21:28.551Z,9.30
2024-01-03T09:23:56.973Z,9.00
2024-01-03T09:26:25.663Z,9.53
2024-01-03T09:28:54.076Z,9.50
2024-01-03T09:31:22.620Z,9.43
2024-01-03T09:33:51.388Z,10.23
2024-01-03T09:36:24.383Z,10.40
2024-01-03T09:38:52.458Z,10.45
2024-01-03T09:41:21.153Z,10.00
2024-01-03T09:43:52.703Z,9.08
2024-01-03T09:46:21.961Z,9.60
2024-01-03T09:48:51.472Z,9.28
2024-01-03T09:51:22.125Z,9.98
2024-01-03T09:53:52.506Z,9.83
2024-01-03T09:56:21.170Z,10.38
2024-01-03T09:58:49.616Z,10.15
2024-01-03T10:01:18.310Z,10.30
2024-01-03T10:03:46.963Z,9.73
2024-01-03T10:06:18.835Z,10.23
2024-01-03T10:09:04.596Z,10.82
2024-01-03T10:11:34.427Z,9.85
2024-01-03T10:14:21.765Z,9.38
2024-01-03T10:16:50.208Z,10.55
2024-01-03T10:19:20.385Z,10.45
2024-01-03T10:21:54.267Z,10.32
2024-01-03T10:24:25.313Z,10.88
2024-01-03T10:26:54.227Z,11.12
2024-01-03T10:29:23.914Z,13.28
2024-01-03T10:31:53.066Z,11.65
2024-01-03T10:34:26.273Z,11.15
2024-01-03T10:36:55.009Z,10.58
2024-01-03T10:39:26.228Z,11.15
2024-01-03T10:41:55.613Z,12.05
2024-01-03T10:44:24.535Z,11.85
2024-01-03T10:46:54.858Z,11.53
2024-01-03T10:49:23.533Z,12.75
2024-01-03T10:52:02.453Z,12.37
2024-01-03T10:54:36.744Z,13.70
2024-01-03T10:57:05.763Z,12.63
2024-01-03T10:59:39.548Z,13.40
2024-01-03T11:02:25.787Z,13.95
2024-01-03T11:05:03.034Z,14.35
2024-01-03T11:07:36.684Z,12.63
2024-01-03T11:10:07.629Z,12.55
2024-01-03T11:12:36.399Z,13.68
2024-01-03T11:15:33.984Z,14.18
2024-01-03T11:17:55.148Z,12.18
2024-01-03T11:20:34.457Z,14.50
2024-01-03T11:23:05.165Z,12.15
2024-01-03T11:25:50.112Z,14.00
2024-01-03T11:28:47.823Z,12.53
2024-01-03T11:31:20.191Z,11.95
2024-01-03T11:33:48.815Z,10.43
2024-01-03T11:36:42.337Z,10.65
2024-01-03T11:39:31.652Z,10.98
2024-01-03T11:42:00.325Z,10.90
2024-01-03T11:44:30.085Z,10.80
2024-01-03T11:47:05.014Z,10.60
2024-01-03T11:49:34.097Z,10.58
2024-01-03T11:52:05.169Z,10.15
2024-01-03T11:54:34.643Z,11.28
2024-01-03T11:57:09.689Z,11.10
2024-01-03T11:59:38.576Z,10.78
2024-01-03T12:02:08.613Z,11.00
2024-01-03T12:04:37.083Z,10.70
2024-01-03T12:07:05.813Z,11.60
2024-01-03T12:09:34.339Z,12.60
2024-01-03T12:12:03.167Z,12.18
2024-01-03T12:14:32.053Z,11.60
2024-01-03T12:17:00.597Z,12.18
2024-01-03T12:19:31.956Z,11.93
2024-01-03T12:22:03.461Z,12.58
2024-01-03T12:24:43.993Z,12.75
2024-01-03T12:27:23.620Z,11.55
2024-01-03T12:29:56.235Z,11.20
2024-01-03T12:32:25.605Z,12.13
2024-01-03T12:34:59.655Z,11.83
2024-01-03T12:37:29.532Z,13.20
2024-01-03T12:39:58.536Z,12.30
2024-01-03T12:42:35.613Z,12.13
2024-01-03T12:44:57.493Z,11.35
2024-01-03T12:47:26.136Z,12.25
2024-01-03T12:49:56.397Z,12.73
2024-01-03T12:52:30.173Z,12.28
2024-01-03T12:54:58.661Z,12.20
2024-01-03T12:57:27.225Z,12.98
2024-01-03T12:59:56.595Z,12.90
2024-01-03T13:02:25.257Z,15.88
2024-01-03T13:04:53.862Z,12.75
2024-01-03T13:07:22.764Z,12.40
2024-01-03T13:09:51.276Z,10.75
2024-01-03T13:12:21.853Z,14.25
2024-01-03T13:14:51.869Z,12.18
2024-01-03T13:17:22.572Z,12.07
2024-01-03T13:19:52.147Z,12.40
2024-01-03T13:22:22.165Z,10.95
2024-01-03T13:24:50.788Z,11.35
2024-01-03T13:27:19.635Z,11.50
2024-01-03T13:29:48.171Z,9.98
2024-01-03T13:32:16.846Z,9.93
2024-01-03T13:34:45.361Z,10.38
2024-01-03T13:37:14.270Z,10.58
2024-01-03T13:39:43.789Z,9.58
2024-01-03T13:42:13.741Z,11.30
2024-01-03T13:44:43.421Z,11.10
2024-01-03T13:47:12.380Z,10.05
2024-01-03T13:49:40.947Z,10.38
2024-01-03T13:52:09.694Z,9.95
2024-01-03T13:54:39.266Z,9.43
2024-01-03T13:57:07.834Z,9.45
2024-01-03T13:59:37.634Z,9.05
2024-01-03T14:02:07.343Z,9.05
2024-01-03T14:04:41.690Z,10.40
2024-01-03T14:07:10.514Z,9.73
2024-01-03T14:09:41.477Z,9.25
2024-01-03T14:12:10.085Z,10.25
2024-01-03T14:14:38.708Z,9.18
2024-01-03T14:17:09.884Z,9.05
2024-01-03T14:19:38.822Z,9.65
2024-01-03T14:22:07.417Z,9.98
2024-01-03T14:24:36.250Z,9.63
2024-01-03T14:27:05.290Z,9.30
2024-01-03T14:29:36.847Z,9.70
2024-01-03T14:32:09.120Z,8.75
2024-01-03T14:34:37.773Z,8.60
2024-01-03T14:37:08.467Z,8.83
2024-01-03T14:39:39.728Z,10.10
2024-01-03T14:42:08.611Z,10.43
2024-01-03T14:44:38.549Z,9.63
2024-01-03T14:47:08.167Z,10.23
2024-01-03T14:49:38.680Z,9.55
2024-01-03T14:52:08.830Z,9.18
2024-01-03T14:54:38.603Z,10.13
2024-01-03T14:57:10.629Z,9.15
2024-01-03T14:59:42.374Z,9.38
2024-01-03T15:02:11.093Z,9.35
2024-01-03T15:04:40.017Z,9.20
2024-01-03T15:07:08.708Z,11.08
2024-01-03T15:09:39.365Z,10.85
2024-01-03T15:12:08.090Z,8.43
2024-01-03T15:14:38.937Z,9.75
2024-01-03T15:17:09.404Z,10.72
2024-01-03T15:19:38.189Z,8.98
2024-01-03T15:22:20.317Z,9.78
2024-01-03T15:24:48.989Z,10.58
2024-01-03T15:27:18.314Z,9.90
2024-01-03T15:29:46.923Z,8.78
2024-01-03T15:32:15.595Z,9.78
2024-01-03T15:34:44.731Z,10.55
2024-01-03T15:37:14.979Z,9.88
2024-01-03T15:39:43.815Z,9.80
2024-01-03T15:42:13.038Z,10.08
2024-01-03T15:44:42.113Z,9.68
2024-01-03T15:47:10.817Z,9.30
2024-01-03T15:49:40.333Z,9.65
2024-01-03T15:52:09.828Z,10.18
2024-01-03T15:54:46.143Z,10.03
2024-01-03T15:57:10.322Z,10.15
2024-01-03T15:59:39.650Z,9.48
2024-01-03T16:02:08.336Z,9.45
2024-01-03T16:04:37.107Z,10.28
2024-01-03T16:07:05.863Z,10.28
2024-01-03T16:09:35.804Z,9.33
2024-01-03T16:12:06.837Z,9.70
2024-01-03T16:14:39.491Z,9.75
2024-01-03T16:17:09.093Z,11.10
2024-01-03T16:19:38.039Z,10.55
2024-01-03T16:22:06.874Z,9.70
2024-01-03T16:24:35.637Z,9.90
2024-01-03T16:27:06.602Z,9.93
2024-01-03T16:29:36.097Z,9.88
2024-01-03T16:32:10.557Z,9.70
2024-01-03T16:34:39.331Z,10.30
2024-01-03T16:37:08.747Z,9.85
2024-01-03T16:39:38.112Z,10.40
2024-01-03T16:42:08.732Z,10.20
2024-01-03T16:44:37.993Z,9.50
2024-01-03T16:47:06.706Z,9.18
2024-01-03T16:49:35.397Z,8.80
2024-01-03T16:52:04.539Z,9.85
2024-01-03T16:54:34.584Z,10.18
2024-01-03T16:57:04.721Z,9.75
2024-01-03T16:59:33.388Z,10.25
2024-01-03T17:02:02.817Z,10.05
2024-01-03T17:04:31.908Z,9.30
2024-01-03T17:07:00.531Z,10.43
2024-01-03T17:09:29.490Z,10.93
2024-01-03T17:11:58.074Z,10.48
2024-01-03T17:14:26.712Z,10.75
2024-01-03T17:16:55.573Z,9.73
2024-01-03T17:19:26.243Z,10.08
2024-01-03T17:21:55.594Z,10.58
2024-01-03T17:24:25.945Z,12.25
2024-01-03T17:26:55.369Z,10.60
2024-01-03T17:29:23.976Z,11.73
2024-01-03T17:31:52.434Z,12.53
2024-01-03T17:34:21.171Z,10.90
2024-01-03T17:36:49.928Z,11.03
2024-01-03T17:39:18.525Z,10.72
2024-01-03T17:41:49.017Z,11.00
2024-01-03T17:44:17.599Z,11.03
2024-01-03T17:46:46.493Z,9.43
2024-01-03T17:49:18.988Z,10.32
2024-01-03T17:51:49.076Z,10.13
2024-01-03T17:54:17.761Z,11.57
2024-01-03T17:56:46.603Z,12.35
2024-01-03T17:59:16.464Z,12.50
2024-01-03T18:01:48.557Z,11.03
2024-01-03T18:04:17.342Z,10.55
2024-01-03T18:06:46.054Z,11.28
2024-01-03T18:09:14.957Z,10.60
2024-01-03T18:11:43.815Z,11.20
2024-01-03T18:14:12.322Z,10.32
2024-01-03T18:16:40.899Z,9.55
2024-01-03T18:19:10.307Z,10.68
2024-01-03T18:21:39.028Z,10.85
2024-01-03T18:24:09.465Z,9.30
2024-01-03T18:26:38.307Z,10.63
2024-01-03T18:29:06.992Z,12.00
2024-01-03T18:31:36.005Z,10.60
2024-01-03T18:34:04.702Z,11.55
2024-01-03T18:36:39.501Z,10.45
2024-01-03T18:39:11.921Z,11.75
2024-01-03T18:41:45.553Z,12.63
2024-01-03T18:44:16.480Z,10.75
2024-01-03T18:46:46.857Z,10.90
2024-01-03T18:49:15.579Z,11.90
2024-01-03T18:51:44.898Z,10.53
2024-01-03T18:54:13.631Z,10.50
2024-01-03T18:56:43.496Z,11.60
2024-01-03T18:59:12.612Z,10.58
2024-01-03T19:01:41.219Z,11.65
2024-01-03T19:04:11.697Z,10.50
2024-01-03T19:06:40.359Z,10.85
2024-01-03T19:09:09.048Z,10.58
2024-01-03T19:11:37.953Z,10.20
2024-01-03T19:14:06.732Z,10.32
2024-01-03T19:16:35.338Z,10.03
2024-01-03T19:19:07.541Z,10.65
2024-01-03T19:21:36.704Z,8.98
2024-01-03T19:24:06.167Z,9.93
2024-01-03T19:26:34.806Z,9.98
2024-01-03T19:29:03.408Z,9.43
2024-01-03T19:31:32.077Z,10.65
2024-01-03T19:34:01.208Z,10.70
2024-01-03T19:36:30.880Z,11.15
2024-01-03T19:38:59.408Z,11.45
2024-01-03T19:41:28.004Z,11.10
2024-01-03T19:43:56.564Z,11.43
2024-01-03T19:46:25.196Z,10.85
2024-01-03T19:48:54.090Z,10.93
2024-01-03T19:51:23.150Z,10.48
2024-01-03T19:53:51.887Z,10.55
2024-01-03T19:56:20.436Z,10.35
2024-01-03T19:58:49.053Z,10.82
2024-01-03T20:01:17.639Z,10.20
2024-01-03T20:03:46.345Z,11.15
2024-01-03T20:06:25.384Z,10.85
2024-01-03T20:08:54.320Z,10.63
2024-01-03T20:11:23.334Z,11.10
2024-01-03T20:13:52.139Z,10.05
2024-01-03T20:16:21.288Z,10.70
2024-01-03T20:18:51.265Z,10.58
2024-01-03T20:21:20.296Z,10.98
2024-01-03T20:23:48.833Z,13.22
2024-01-03T20:26:18.428Z,12.20
2024-01-03T20:28:48.255Z,11.68
2024-01-03T20:31:19.159Z,13.40
2024-01-03T20:33:48.007Z,11.63
2024-01-03T20:36:20.424Z,12.53
2024-01-03T20:38:48.855Z,13.15
2024-01-03T20:41:22.320Z,13.85
2024-01-03T20:43:51.204Z,13.80
2024-01-03T20:46:20.975Z,12.13
2024-01-03T20:48:49.795Z,11.18
2024-01-03T20:51:19.224Z,11.83
2024-01-03T20:53:47.943Z,11.88
2024-01-03T20:56:16.822Z,12.43
2024-01-03T20:58:45.544Z,11.78
2024-01-03T21:01:14.379Z,11.50
2024-01-03T21:03:43.646Z,11.53
2024-01-03T21:06:13.094Z,11.45
2024-01-03T21:08:41.701Z,13.03
2024-01-03T21:11:10.039Z,12.88
2024-01-03T21:13:44.793Z,11.93
2024-01-03T21:16:18.128Z,11.95
2024-01-03T21:18:46.981Z,11.68
2024-01-03T21:21:15.830Z,12.55
2024-01-03T21:23:44.187Z,12.18
2024-01-03T21:26:15.190Z,12.10
2024-01-03T21:28:43.661Z,12.85
2024-01-03T21:31:12.161Z,11.50
2024-01-03T21:33:40.479Z,12.88
2024-01-03T21:36:10.761Z,12.65
2024-01-03T21:38:41.966Z,12.10
2024-01-03T21:41:13.313Z,11.20
2024-01-03T21:43:41.870Z,12.30
2024-01-03T21:46:10.254Z,12.73
2024-01-03T21:48:38.881Z,12.28
2024-01-03T21:51:07.786Z,12.58
2024-01-03T21:53:36.221Z,14.33
2024-01-03T21:56:04.872Z,12.98
2024-01-03T21:58:33.270Z,12.80
2024-01-03T22:01:02.741Z,14.50
2024-01-03T22:03:31.685Z,13.18
2024-01-03T22:06:00.408Z,13.58
2024-01-03T22:08:28.837Z,13.50
2024-01-03T22:10:57.313Z,14.78
2024-01-03T22:13:25.736Z,13.22
2024-01-03T22:15:54.383Z,13.00
2024-01-03T22:18:23.234Z,13.78
2024-01-03T22:20:51.925Z,12.58
2024-01-03T22:23:20.341Z,12.98
2024-01-03T22:25:50.701Z,13.85
2024-01-03T22:28:21.699Z,12.82
2024-01-03T22:30:50.151Z,12.10
2024-01-03T22:33:19.888Z,13.18
2024-01-03T22:35:48.486Z,12.98
2024-01-03T22:38:16.956Z,14.00
2024-01-03T22:40:45.350Z,13.25
2024-01-03T22:43:13.887Z,14.53
2024-01-03T22:45:42.197Z,14.07
2024-01-03T22:48:10.785Z,14.05
2024-01-03T22:50:39.522Z,13.45
2024-01-03T22:53:08.497Z,13.13
2024-01-03T22:55:36.990Z,13.78
2024-01-03T22:58:05.613Z,14.45
2024-01-03T23:00:34.150Z,16.32
2024-01-03T23:03:02.600Z,15.85
2024-01-03T23:05:31.326Z,14.00
2024-01-03T23:07:59.891Z,14.73
2024-01-03T23:10:28.394Z,15.47
2024-01-03T23:12:57.407Z,14.18
2024-01-03T23:15:26.910Z,14.40
2024-01-03T23:17:55.319Z,14.90
2024-01-03T23:20:24.343Z,17.40
2024-01-03T23:23:01.307Z,15.95
2024-01-03T23:25:24.196Z,15.60
2024-01-03T23:27:52.578Z,15.30
2024-01-03T23:30:22.513Z,14.87
2024-01-03T23:32:51.000Z,15.15
2024-01-03T23:35:20.345Z,16.35
2024-01-03T23:37:48.612Z,16.70
2024-01-03T23:40:16.960Z,15.50
2024-01-03T23:42:45.365Z,15.63
2024-01-03T23:45:14.015Z,15.83
2024-01-03T23:47:42.711Z,15.30
2024-01-03T23:50:11.384Z,16.17
2024-01-03T23:52:39.716Z,16.05
2024-01-03T23:55:09.605Z,16.50
2024-01-03T23:57:38.156Z,16.52
